sensor_id;sensor_type;location;lat;lon;timestamp;pressure;altitude;pressure_sealevel;temperature;humidity
80640;BME280;69992;60.170;24.692;2023-05-07T00:00:11;102968.00;;;-5.88;14.66
80640;BME280;69992;60.170;24.692;2023-05-07T00:02:36;102969.77;;;-5.91;14.70
80640;BME280;69992;60.170;24.692;2023-05-07T00:05:01;102969.02;;;-4.96;14.65
80640;BME280;69992;60.170;24.692;2023-05-07T00:07:27;102973.41;;;-5.97;14.64
80640;BME280;69992;60.170;24.692;2023-05-07T00:09:52;102972.78;;;-4.05;14.66
80640;BME280;69992;60.170;24.692;2023-05-07T00:12:17;102969.15;;;-6.07;14.63
80640;BME280;69992;60.170;24.692;2023-05-07T00:14:43;102970.22;;;-4.15;14.63
80640;BME280;69992;60.170;24.692;2023-05-07T00:17:08;102976.71;;;-6.15;14.64
80640;BME280;69992;60.170;24.692;2023-05-07T00:19:34;102976.97;;;-6.22;14.65
80640;BME280;69992;60.170;24.692;2023-05-07T00:21:59;102972.03;;;-6.27;14.66
80640;BME280;69992;60.170;24.692;2023-05-07T00:24:24;102973.47;;;-5.36;14.64
80640;BME280;69992;60.170;24.692;2023-05-07T00:26:50;102974.12;;;-5.35;14.64
80640;BME280;69992;60.170;24.692;2023-05-07T00:29:15;102971.36;;;-5.39;14.64
80640;BME280;69992;60.170;24.692;2023-05-07T00:31:41;102971.42;;;-5.46;14.67
80640;BME280;69992;60.170;24.692;2023-05-07T00:34:06;102973.26;;;-6.50;14.64
80640;BME280;69992;60.170;24.692;2023-05-07T00:36:32;102972.14;;;-6.55;14.65
80640;BME280;69992;60.170;24.692;2023-05-07T00:38:59;102970.40;;;-5.62;14.64
80640;BME280;69992;60.170;24.692;2023-05-07T00:41:23;102970.15;;;-6.58;14.66
80640;BME280;69992;60.170;24.692;2023-05-07T00:43:48;102967.65;;;-5.64;14.63
80640;BME280;69992;60.170;24.692;2023-05-07T00:46:14;102966.96;;;-4.66;14.61
80640;BME280;69992;60.170;24.692;2023-05-07T00:48:39;102965.56;;;-4.71;14.63
80640;BME280;69992;60.170;24.692;2023-05-07T00:51:05;102964.52;;;-4.73;14.66
80640;BME280;69992;60.170;24.692;2023-05-07T00:53:30;102964.45;;;-6.74;14.64
80640;BME280;69992;60.170;24.692;2023-05-07T00:55:55;102962.18;;;-4.86;14.64
80640;BME280;69992;60.170;24.692;2023-05-07T00:58:21;102966.31;;;-4.92;14.62
80640;BME280;69992;60.170;24.692;2023-05-07T01:00:46;102965.01;;;-4.97;14.64
80640;BME280;69992;60.170;24.692;2023-05-07T01:03:11;102968.24;;;-5.06;14.65
80640;BME280;69992;60.170;24.692;2023-05-07T01:05:38;102968.92;;;-5.12;14.60
80640;BME280;69992;60.170;24.692;2023-05-07T01:08:03;102967.85;;;-6.20;14.60
80640;BME280;69992;60.170;24.692;2023-05-07T01:10:28;102970.04;;;-5.30;14.62
80640;BME280;69992;60.170;24.692;2023-05-07T01:12:54;102969.62;;;-5.39;14.60
80640;BME280;69992;60.170;24.692;2023-05-07T01:15:19;102970.76;;;-6.45;14.61
80640;BME280;69992;60.170;24.692;2023-05-07T01:17:44;102972.13;;;-5.58;14.62
80640;BME280;69992;60.170;24.692;2023-05-07T01:20:11;102971.34;;;-6.64;14.66
80640;BME280;69992;60.170;24.692;2023-05-07T01:22:36;102971.42;;;-6.74;14.64
80640;BME280;69992;60.170;24.692;2023-05-07T01:25:01;102969.60;;;-5.83;14.64
80640;BME280;69992;60.170;24.692;2023-05-07T01:27:26;102969.98;;;-6.89;14.62
80640;BME280;69992;60.170;24.692;2023-05-07T01:29:51;102972.44;;;-6.00;14.64
80640;BME280;69992;60.170;24.692;2023-05-07T01:32:20;102974.46;;;-6.05;14.64
80640;BME280;69992;60.170;24.692;2023-05-07T01:34:42;102976.29;;;-6.07;14.64
80640;BME280;69992;60.170;24.692;2023-05-07T01:37:06;102976.72;;;-7.13;14.65
80640;BME280;69992;60.170;24.692;2023-05-07T01:39:32;102981.79;;;-6.24;14.66
80640;BME280;69992;60.170;24.692;2023-05-07T01:41:57;102980.13;;;-6.26;14.70
80640;BME280;69992;60.170;24.692;2023-05-07T01:44:22;102980.91;;;-6.27;14.63
80640;BME280;69992;60.170;24.692;2023-05-07T01:46:47;102984.55;;;-6.34;14.63
80640;BME280;69992;60.170;24.692;2023-05-07T01:49:12;102985.30;;;-6.36;14.59
80640;BME280;69992;60.170;24.692;2023-05-07T01:51:37;102983.10;;;-6.40;14.60
80640;BME280;69992;60.170;24.692;2023-05-07T01:54:03;102982.15;;;-6.49;14.59
80640;BME280;69992;60.170;24.692;2023-05-07T01:56:28;102985.00;;;-5.63;14.59
80640;BME280;69992;60.170;24.692;2023-05-07T01:58:53;102987.81;;;-6.74;14.60
80640;BME280;69992;60.170;24.692;2023-05-07T02:01:18;102987.78;;;-6.85;14.60
80640;BME280;69992;60.170;24.692;2023-05-07T02:03:43;102988.55;;;-6.94;14.64
80640;BME280;69992;60.170;24.692;2023-05-07T02:06:08;102986.43;;;-7.02;14.61
80640;BME280;69992;60.170;24.692;2023-05-07T02:08:33;102986.07;;;-6.07;14.61
80640;BME280;69992;60.170;24.692;2023-05-07T02:10:58;102986.99;;;-7.11;14.62
80640;BME280;69992;60.170;24.692;2023-05-07T02:13:25;102987.44;;;-7.18;14.62
80640;BME280;69992;60.170;24.692;2023-05-07T02:15:49;102988.07;;;-7.21;14.64
80640;BME280;69992;60.170;24.692;2023-05-07T02:18:15;102989.02;;;-7.23;14.63
80640;BME280;69992;60.170;24.692;2023-05-07T02:20:39;102988.23;;;-6.26;14.60
80640;BME280;69992;60.170;24.692;2023-05-07T02:23:04;102988.26;;;-7.25;14.60
80640;BME280;69992;60.170;24.692;2023-05-07T02:25:29;102992.73;;;-7.25;14.60
80640;BME280;69992;60.170;24.692;2023-05-07T02:27:54;102992.33;;;-6.28;14.62
80640;BME280;69992;60.170;24.692;2023-05-07T02:30:19;102988.31;;;-7.28;14.60
80640;BME280;69992;60.170;24.692;2023-05-07T02:32:44;102988.61;;;-7.31;14.62
80640;BME280;69992;60.170;24.692;2023-05-07T02:35:09;102987.97;;;-6.40;14.61
80640;BME280;69992;60.170;24.692;2023-05-07T02:37:34;102989.36;;;-7.38;14.62
80640;BME280;69992;60.170;24.692;2023-05-07T02:39:59;102991.47;;;-7.31;14.62
80640;BME280;69992;60.170;24.692;2023-05-07T02:42:24;102995.75;;;-7.27;14.63
80640;BME280;69992;60.170;24.692;2023-05-07T02:44:49;102998.06;;;-5.25;14.61
80640;BME280;69992;60.170;24.692;2023-05-07T02:47:15;102998.56;;;-6.21;14.60
80640;BME280;69992;60.170;24.692;2023-05-07T02:49:40;102999.85;;;-6.20;14.63
80640;BME280;69992;60.170;24.692;2023-05-07T02:52:05;103002.20;;;-7.15;14.63
80640;BME280;69992;60.170;24.692;2023-05-07T02:54:30;103002.41;;;-7.11;14.63
80640;BME280;69992;60.170;24.692;2023-05-07T02:56:55;103004.28;;;-6.11;14.61
80640;BME280;69992;60.170;24.692;2023-05-07T02:59:20;103003.94;;;-6.04;14.60
80640;BME280;69992;60.170;24.692;2023-05-07T03:01:45;103005.09;;;-7.02;14.61
80640;BME280;69992;60.170;24.692;2023-05-07T03:04:10;103006.78;;;-6.97;14.58
80640;BME280;69992;60.170;24.692;2023-05-07T03:06:35;103007.89;;;-5.96;14.56
80640;BME280;69992;60.170;24.692;2023-05-07T03:09:01;103010.71;;;-5.93;14.60
80640;BME280;69992;60.170;24.692;2023-05-07T03:11:26;103010.66;;;-6.88;14.60
80640;BME280;69992;60.170;24.692;2023-05-07T03:13:51;103012.95;;;-6.78;14.60
80640;BME280;69992;60.170;24.692;2023-05-07T03:16:16;103015.24;;;-6.73;14.59
80640;BME280;69992;60.170;24.692;2023-05-07T03:18:41;103016.88;;;-6.67;14.60
80640;BME280;69992;60.170;24.692;2023-05-07T03:21:06;103016.95;;;-6.56;14.56
80640;BME280;69992;60.170;24.692;2023-05-07T03:23:31;103017.35;;;-6.40;14.55
80640;BME280;69992;60.170;24.692;2023-05-07T03:25:57;103019.06;;;-6.25;14.54
80640;BME280;69992;60.170;24.692;2023-05-07T03:28:22;103020.87;;;-6.11;14.53
80640;BME280;69992;60.170;24.692;2023-05-07T03:30:48;103022.15;;;-5.97;14.53
80640;BME280;69992;60.170;24.692;2023-05-07T03:33:13;103023.80;;;-5.85;14.53
80640;BME280;69992;60.170;24.692;2023-05-07T03:35:39;103026.17;;;-5.76;14.56
80640;BME280;69992;60.170;24.692;2023-05-07T03:38:04;103026.18;;;-5.63;14.51
80640;BME280;69992;60.170;24.692;2023-05-07T03:40:29;103028.27;;;-5.51;14.51
80640;BME280;69992;60.170;24.692;2023-05-07T03:42:55;103026.59;;;-5.38;14.50
80640;BME280;69992;60.170;24.692;2023-05-07T03:45:21;103029.34;;;-5.23;14.49
80640;BME280;69992;60.170;24.692;2023-05-07T03:47:46;103027.17;;;-5.12;14.51
80640;BME280;69992;60.170;24.692;2023-05-07T03:50:11;103026.83;;;-5.94;14.49
80640;BME280;69992;60.170;24.692;2023-05-07T03:52:36;103026.95;;;-4.82;14.48
80640;BME280;69992;60.170;24.692;2023-05-07T03:55:03;103030.47;;;-5.63;14.47
80640;BME280;69992;60.170;24.692;2023-05-07T03:57:27;103032.01;;;-4.49;14.52
80640;BME280;69992;60.170;24.692;2023-05-07T03:59:53;103035.95;;;-6.34;14.48
80640;BME280;69992;60.170;24.692;2023-05-07T04:02:18;103036.37;;;-5.23;14.50
80640;BME280;69992;60.170;24.692;2023-05-07T04:04:44;103039.40;;;-5.09;14.49
80640;BME280;69992;60.170;24.692;2023-05-07T04:07:09;103042.31;;;-4.90;14.48
80640;BME280;69992;60.170;24.692;2023-05-07T04:09:35;103043.06;;;-5.71;14.47
80640;BME280;69992;60.170;24.692;2023-05-07T04:12:00;103044.83;;;-5.53;14.49
80640;BME280;69992;60.170;24.692;2023-05-07T04:14:26;103048.55;;;-3.38;14.47
80640;BME280;69992;60.170;24.692;2023-05-07T04:16:51;103051.33;;;-5.12;14.46
80640;BME280;69992;60.170;24.692;2023-05-07T04:19:17;103054.57;;;-3.92;14.45
80640;BME280;69992;60.170;24.692;2023-05-07T04:21:42;103058.26;;;-3.64;14.45
80640;BME280;69992;60.170;24.692;2023-05-07T04:24:08;103061.27;;;-4.39;14.44
80640;BME280;69992;60.170;24.692;2023-05-07T04:26:33;103063.69;;;-5.15;14.43
80640;BME280;69992;60.170;24.692;2023-05-07T04:28:58;103065.64;;;-3.96;14.42
80640;BME280;69992;60.170;24.692;2023-05-07T04:31:23;103065.77;;;-3.73;14.41
80640;BME280;69992;60.170;24.692;2023-05-07T04:33:49;103066.11;;;-4.45;14.42
80640;BME280;69992;60.170;24.692;2023-05-07T04:36:14;103068.46;;;-3.22;14.40
80640;BME280;69992;60.170;24.692;2023-05-07T04:38:40;103073.79;;;-3.90;14.40
80640;BME280;69992;60.170;24.692;2023-05-07T04:41:06;103075.72;;;-4.62;14.40
80640;BME280;69992;60.170;24.692;2023-05-07T04:43:31;103076.43;;;-4.41;14.40
80640;BME280;69992;60.170;24.692;2023-05-07T04:45:56;103074.20;;;-4.22;14.41
80640;BME280;69992;60.170;24.692;2023-05-07T04:48:22;103077.31;;;-4.14;14.54
80640;BME280;69992;60.170;24.692;2023-05-07T04:50:48;103076.44;;;-3.94;14.49
80640;BME280;69992;60.170;24.692;2023-05-07T04:53:12;103073.34;;;-3.68;14.49
80640;BME280;69992;60.170;24.692;2023-05-07T04:55:38;103074.73;;;-3.47;14.49
80640;BME280;69992;60.170;24.692;2023-05-07T04:58:03;103079.76;;;-4.16;14.47
80640;BME280;69992;60.170;24.692;2023-05-07T05:00:28;103081.03;;;-2.91;14.46
80640;BME280;69992;60.170;24.692;2023-05-07T05:02:54;103076.56;;;-3.63;14.44
80640;BME280;69992;60.170;24.692;2023-05-07T05:05:20;103074.16;;;-3.39;14.45
80640;BME280;69992;60.170;24.692;2023-05-07T05:07:46;103075.06;;;-2.15;14.46
80640;BME280;69992;60.170;24.692;2023-05-07T05:10:12;103077.63;;;-1.85;14.44
80640;BME280;69992;60.170;24.692;2023-05-07T05:12:37;103076.41;;;-3.55;14.44
80640;BME280;69992;60.170;24.692;2023-05-07T05:15:04;103077.04;;;-3.34;14.50
80640;BME280;69992;60.170;24.692;2023-05-07T05:17:29;103073.85;;;-3.08;14.44
80640;BME280;69992;60.170;24.692;2023-05-07T05:19:55;103076.13;;;-1.88;14.44
80640;BME280;69992;60.170;24.692;2023-05-07T05:22:21;103078.38;;;-2.58;14.43
80640;BME280;69992;60.170;24.692;2023-05-07T05:24:46;103077.16;;;-2.39;14.45
80640;BME280;69992;60.170;24.692;2023-05-07T05:27:12;103078.94;;;-2.15;14.45
80640;BME280;69992;60.170;24.692;2023-05-07T05:29:38;103077.62;;;-1.85;14.46
80640;BME280;69992;60.170;24.692;2023-05-07T05:32:04;103075.94;;;-1.56;14.42
80640;BME280;69992;60.170;24.692;2023-05-07T05:34:30;103076.88;;;-1.31;14.41
80640;BME280;69992;60.170;24.692;2023-05-07T05:36:56;103076.33;;;-1.08;14.40
80640;BME280;69992;60.170;24.692;2023-05-07T05:39:21;103077.11;;;-0.87;14.43
80640;BME280;69992;60.170;24.692;2023-05-07T05:41:47;103076.11;;;-0.66;14.45
80640;BME280;69992;60.170;24.692;2023-05-07T05:44:13;103079.06;;;-1.40;14.44
80640;BME280;69992;60.170;24.692;2023-05-07T05:46:39;103081.98;;;-2.14;14.44
80640;BME280;69992;60.170;24.692;2023-05-07T05:49:04;103082.48;;;-1.80;14.43
80640;BME280;69992;60.170;24.692;2023-05-07T05:51:30;103085.00;;;-1.63;14.60
80640;BME280;69992;60.170;24.692;2023-05-07T05:53:56;103079.95;;;-1.32;14.47
80640;BME280;69992;60.170;24.692;2023-05-07T05:56:22;103079.56;;;0.87;14.43
80640;BME280;69992;60.170;24.692;2023-05-07T05:58:48;103083.09;;;-0.92;14.42
80640;BME280;69992;60.170;24.692;2023-05-07T06:01:13;103083.10;;;-0.61;14.41
80640;BME280;69992;60.170;24.692;2023-05-07T06:03:39;103085.19;;;-0.26;14.43
80640;BME280;69992;60.170;24.692;2023-05-07T06:06:05;103082.32;;;-0.98;14.40
80640;BME280;69992;60.170;24.692;2023-05-07T06:08:31;103084.03;;;0.23;14.38
80640;BME280;69992;60.170;24.692;2023-05-07T06:10:56;103086.67;;;-0.55;14.45
80640;BME280;69992;60.170;24.692;2023-05-07T06:13:22;103084.18;;;-0.32;14.39
80640;BME280;69992;60.170;24.692;2023-05-07T06:15:49;103083.26;;;0.91;14.40
80640;BME280;69992;60.170;24.692;2023-05-07T06:18:14;103087.69;;;0.22;14.45
80640;BME280;69992;60.170;24.692;2023-05-07T06:20:39;103089.48;;;-0.53;14.42
80640;BME280;69992;60.170;24.692;2023-05-07T06:23:05;103089.86;;;0.71;14.41
80640;BME280;69992;60.170;24.692;2023-05-07T06:25:31;103088.70;;;0.05;14.41
80640;BME280;69992;60.170;24.692;2023-05-07T06:27:57;103093.25;;;0.33;14.39
80640;BME280;69992;60.170;24.692;2023-05-07T06:30:22;103090.10;;;0.53;14.38
80640;BME280;69992;60.170;24.692;2023-05-07T06:32:48;103089.76;;;0.61;14.46
80640;BME280;69992;60.170;24.692;2023-05-07T06:35:14;103093.35;;;0.84;14.43
80640;BME280;69992;60.170;24.692;2023-05-07T06:37:40;103089.06;;;1.10;14.42
80640;BME280;69992;60.170;24.692;2023-05-07T06:40:06;103090.26;;;1.44;14.39
80640;BME280;69992;60.170;24.692;2023-05-07T06:42:31;103091.38;;;-0.26;14.38
80640;BME280;69992;60.170;24.692;2023-05-07T06:44:57;103091.62;;;-0.02;14.36
80640;BME280;69992;60.170;24.692;2023-05-07T06:47:23;103092.26;;;1.25;14.37
80640;BME280;69992;60.170;24.692;2023-05-07T06:49:48;103092.34;;;1.38;14.37
80640;BME280;69992;60.170;24.692;2023-05-07T06:52:14;103094.60;;;0.48;14.42
80640;BME280;69992;60.170;24.692;2023-05-07T06:54:40;103090.31;;;2.52;14.47
80640;BME280;69992;60.170;24.692;2023-05-07T06:57:06;103089.85;;;1.69;14.48
80640;BME280;69992;60.170;24.692;2023-05-07T06:59:31;103091.80;;;1.10;14.43
80640;BME280;69992;60.170;24.692;2023-05-07T07:01:57;103088.44;;;1.46;14.39
80640;BME280;69992;60.170;24.692;2023-05-07T07:04:23;103086.46;;;1.70;14.39
80640;BME280;69992;60.170;24.692;2023-05-07T07:06:48;103089.73;;;2.01;14.38
80640;BME280;69992;60.170;24.692;2023-05-07T07:09:14;103087.67;;;2.25;14.37
80640;BME280;69992;60.170;24.692;2023-05-07T07:11:40;103082.30;;;1.50;14.40
80640;BME280;69992;60.170;24.692;2023-05-07T07:14:06;103086.82;;;0.77;14.41
80640;BME280;69992;60.170;24.692;2023-05-07T07:16:31;103082.85;;;1.95;14.42
80640;BME280;69992;60.170;24.692;2023-05-07T07:18:57;103083.14;;;1.32;14.41
80640;BME280;69992;60.170;24.692;2023-05-07T07:21:23;103082.77;;;1.60;14.41
80640;BME280;69992;60.170;24.692;2023-05-07T07:23:48;103084.25;;;1.89;14.40
80640;BME280;69992;60.170;24.692;2023-05-07T07:26:14;103083.23;;;2.12;14.41
80640;BME280;69992;60.170;24.692;2023-05-07T07:28:43;103079.28;;;3.26;14.43
80640;BME280;69992;60.170;24.692;2023-05-07T07:31:05;103079.64;;;2.58;14.42
80640;BME280;69992;60.170;24.692;2023-05-07T07:33:31;103075.41;;;2.75;14.45
80640;BME280;69992;60.170;24.692;2023-05-07T07:35:57;103074.78;;;3.00;14.40
80640;BME280;69992;60.170;24.692;2023-05-07T07:38:22;103078.76;;;3.19;14.40
80640;BME280;69992;60.170;24.692;2023-05-07T07:40:48;103075.07;;;3.40;14.42
80640;BME280;69992;60.170;24.692;2023-05-07T07:43:14;103071.70;;;3.68;14.42
80640;BME280;69992;60.170;24.692;2023-05-07T07:45:40;103067.76;;;2.87;14.47
80640;BME280;69992;60.170;24.692;2023-05-07T07:48:05;103070.62;;;2.05;14.49
80640;BME280;69992;60.170;24.692;2023-05-07T07:50:31;103070.48;;;3.35;14.48
80640;BME280;69992;60.170;24.692;2023-05-07T07:52:57;103073.33;;;2.67;14.51
80640;BME280;69992;60.170;24.692;2023-05-07T07:55:23;103068.91;;;3.91;14.47
80640;BME280;69992;60.170;24.692;2023-05-07T07:57:48;103071.75;;;4.20;14.52
80640;BME280;69992;60.170;24.692;2023-05-07T08:00:15;103074.20;;;3.39;14.48
80640;BME280;69992;60.170;24.692;2023-05-07T08:02:39;103070.19;;;3.68;14.46
80640;BME280;69992;60.170;24.692;2023-05-07T08:05:05;103068.05;;;3.96;14.44
80640;BME280;69992;60.170;24.692;2023-05-07T08:07:31;103069.64;;;4.30;14.51
80640;BME280;69992;60.170;24.692;2023-05-07T08:09:56;103064.15;;;4.50;14.45
80640;BME280;69992;60.170;24.692;2023-05-07T08:12:22;103066.57;;;4.69;14.48
80640;BME280;69992;60.170;24.692;2023-05-07T08:14:48;103065.01;;;3.96;14.47
80640;BME280;69992;60.170;24.692;2023-05-07T08:17:13;103065.67;;;4.29;14.47
80640;BME280;69992;60.170;24.692;2023-05-07T08:19:39;103061.52;;;5.78;14.46
80640;BME280;69992;60.170;24.692;2023-05-07T08:22:04;103063.20;;;4.31;14.44
80640;BME280;69992;60.170;24.692;2023-05-07T08:24:30;103066.22;;;5.76;14.44
80640;BME280;69992;60.170;24.692;2023-05-07T08:26:56;103065.37;;;6.02;14.45
80640;BME280;69992;60.170;24.692;2023-05-07T08:29:21;103062.47;;;6.18;14.43
80640;BME280;69992;60.170;24.692;2023-05-07T08:31:47;103063.82;;;5.33;14.47
80640;BME280;69992;60.170;24.692;2023-05-07T08:34:13;103066.47;;;4.61;14.50
80640;BME280;69992;60.170;24.692;2023-05-07T08:36:38;103066.61;;;5.94;14.53
80640;BME280;69992;60.170;24.692;2023-05-07T08:39:04;103065.92;;;5.35;14.47
80640;BME280;69992;60.170;24.692;2023-05-07T08:41:30;103058.82;;;4.66;14.50
80640;BME280;69992;60.170;24.692;2023-05-07T08:43:58;103052.91;;;6.82;14.53
80640;BME280;69992;60.170;24.692;2023-05-07T08:46:22;103055.96;;;5.25;14.49
80640;BME280;69992;60.170;24.692;2023-05-07T08:48:48;103055.13;;;5.54;14.47
80640;BME280;69992;60.170;24.692;2023-05-07T08:51:13;103056.15;;;5.77;14.51
80640;BME280;69992;60.170;24.692;2023-05-07T08:53:40;103055.78;;;6.07;14.51
80640;BME280;69992;60.170;24.692;2023-05-07T08:56:04;103060.98;;;6.26;14.53
80640;BME280;69992;60.170;24.692;2023-05-07T08:58:29;103060.11;;;6.59;14.54
80640;BME280;69992;60.170;24.692;2023-05-07T09:00:55;103057.75;;;6.96;14.55
80640;BME280;69992;60.170;24.692;2023-05-07T09:03:21;103056.25;;;6.50;14.53
80640;BME280;69992;60.170;24.692;2023-05-07T09:05:46;103059.93;;;6.93;14.53
80640;BME280;69992;60.170;24.692;2023-05-07T09:08:15;103055.26;;;8.44;14.50
80640;BME280;69992;60.170;24.692;2023-05-07T09:10:37;103059.79;;;7.08;14.49
80640;BME280;69992;60.170;24.692;2023-05-07T09:13:03;103058.47;;;7.49;14.46
80640;BME280;69992;60.170;24.692;2023-05-07T09:15:29;103055.27;;;7.55;14.44
80640;BME280;69992;60.170;24.692;2023-05-07T09:17:56;103054.86;;;8.11;14.47
80640;BME280;69992;60.170;24.692;2023-05-07T09:20:20;103052.14;;;8.85;14.45
80640;BME280;69992;60.170;24.692;2023-05-07T09:22:46;103050.69;;;9.40;14.40
80640;BME280;69992;60.170;24.692;2023-05-07T09:25:11;103045.75;;;10.02;14.40
80640;BME280;69992;60.170;24.692;2023-05-07T09:27:37;103047.34;;;9.76;14.20
80640;BME280;69992;60.170;24.692;2023-05-07T09:30:04;103046.58;;;11.19;13.89
80640;BME280;69992;60.170;24.692;2023-05-07T09:32:28;103049.97;;;11.90;13.70
80640;BME280;69992;60.170;24.692;2023-05-07T09:34:53;103045.76;;;12.37;13.61
80640;BME280;69992;60.170;24.692;2023-05-07T09:37:19;103049.59;;;12.92;13.55
80640;BME280;69992;60.170;24.692;2023-05-07T09:39:45;103051.85;;;14.52;13.44
80640;BME280;69992;60.170;24.692;2023-05-07T09:42:10;103048.40;;;14.33;13.30
80640;BME280;69992;60.170;24.692;2023-05-07T09:44:36;103050.90;;;15.23;13.15
80640;BME280;69992;60.170;24.692;2023-05-07T09:47:05;103052.37;;;15.71;13.00
80640;BME280;69992;60.170;24.692;2023-05-07T09:49:29;103046.43;;;16.19;13.00
80640;BME280;69992;60.170;24.692;2023-05-07T09:51:52;103052.95;;;18.10;12.85
80640;BME280;69992;60.170;24.692;2023-05-07T09:54:18;103051.69;;;17.13;12.89
80640;BME280;69992;60.170;24.692;2023-05-07T09:56:43;103051.66;;;17.43;12.86
80640;BME280;69992;60.170;24.692;2023-05-07T09:59:10;103055.74;;;17.81;12.77
80640;BME280;69992;60.170;24.692;2023-05-07T10:01:36;103054.63;;;18.56;12.76
80640;BME280;69992;60.170;24.692;2023-05-07T10:04:01;103052.67;;;18.92;12.73
80640;BME280;69992;60.170;24.692;2023-05-07T10:06:25;103061.38;;;18.99;12.73
80640;BME280;69992;60.170;24.692;2023-05-07T10:08:51;103056.45;;;19.62;12.67
80640;BME280;69992;60.170;24.692;2023-05-07T10:11:16;103058.09;;;19.52;12.70
80640;BME280;69992;60.170;24.692;2023-05-07T10:13:41;103057.19;;;19.74;12.73
80640;BME280;69992;60.170;24.692;2023-05-07T10:16:07;103057.14;;;19.48;12.63
80640;BME280;69992;60.170;24.692;2023-05-07T10:18:33;103057.52;;;19.79;12.73
80640;BME280;69992;60.170;24.692;2023-05-07T10:21:01;103053.40;;;21.21;12.72
80640;BME280;69992;60.170;24.692;2023-05-07T10:23:23;103057.80;;;19.62;12.52
80640;BME280;69992;60.170;24.692;2023-05-07T10:25:48;103052.80;;;20.10;12.70
80640;BME280;69992;60.170;24.692;2023-05-07T10:28:14;103054.26;;;20.55;12.83
80640;BME280;69992;60.170;24.692;2023-05-07T10:30:48;103053.37;;;20.71;12.78
80640;BME280;69992;60.170;24.692;2023-05-07T10:33:06;103050.65;;;20.24;12.69
80640;BME280;69992;60.170;24.692;2023-05-07T10:35:32;103051.30;;;20.61;12.61
80640;BME280;69992;60.170;24.692;2023-05-07T10:37:55;103048.89;;;21.37;12.74
80640;BME280;69992;60.170;24.692;2023-05-07T10:40:21;103050.03;;;20.85;12.67
80640;BME280;69992;60.170;24.692;2023-05-07T10:42:56;103046.30;;;19.77;12.75
80640;BME280;69992;60.170;24.692;2023-05-07T10:45:12;103049.81;;;20.43;12.88
80640;BME280;69992;60.170;24.692;2023-05-07T10:50:20;103032.89;;;17.58;13.50
80640;BME280;69992;60.170;24.692;2023-05-07T10:52:27;103031.63;;;18.11;13.80
80640;BME280;69992;60.170;24.692;2023-05-07T10:57:34;103030.65;;;14.00;14.26
80640;BME280;69992;60.170;24.692;2023-05-07T10:59:44;103032.58;;;14.46;14.38
80640;BME280;69992;60.170;24.692;2023-05-07T11:02:10;103026.57;;;13.34;14.54
80640;BME280;69992;60.170;24.692;2023-05-07T11:04:35;103024.87;;;12.23;14.63
80640;BME280;69992;60.170;24.692;2023-05-07T11:07:16;103023.06;;;13.05;14.68
80640;BME280;69992;60.170;24.692;2023-05-07T11:11:51;103018.01;;;11.41;14.82
80640;BME280;69992;60.170;24.692;2023-05-07T11:16:43;103021.87;;;11.13;14.84
80640;BME280;69992;60.170;24.692;2023-05-07T11:19:08;103020.39;;;11.25;14.85
80640;BME280;69992;60.170;24.692;2023-05-07T11:21:35;103018.51;;;10.23;14.85
80640;BME280;69992;60.170;24.692;2023-05-07T11:23:59;103023.64;;;9.33;14.91
80640;BME280;69992;60.170;24.692;2023-05-07T11:26:25;103017.56;;;9.46;14.91
80640;BME280;69992;60.170;24.692;2023-05-07T11:28:51;103024.06;;;9.79;14.99
80640;BME280;69992;60.170;24.692;2023-05-07T11:31:21;103022.97;;;9.30;15.01
80640;BME280;69992;60.170;24.692;2023-05-07T11:33:41;103020.30;;;10.10;15.03
80640;BME280;69992;60.170;24.692;2023-05-07T11:36:08;103026.27;;;9.05;15.04
80640;BME280;69992;60.170;24.692;2023-05-07T11:38:35;103017.61;;;9.94;15.03
80640;BME280;69992;60.170;24.692;2023-05-07T11:40:59;103019.03;;;8.87;15.00
80640;BME280;69992;60.170;24.692;2023-05-07T11:43:23;103024.79;;;8.83;14.97
80640;BME280;69992;60.170;24.692;2023-05-07T11:45:49;103018.59;;;9.05;14.93
80640;BME280;69992;60.170;24.692;2023-05-07T11:48:15;103012.94;;;10.01;14.85
80640;BME280;69992;60.170;24.692;2023-05-07T11:53:07;103008.07;;;10.91;14.44
80640;BME280;69992;60.170;24.692;2023-05-07T11:55:31;103014.26;;;12.24;14.36
80640;BME280;69992;60.170;24.692;2023-05-07T11:57:56;103015.71;;;11.89;14.24
80640;BME280;69992;60.170;24.692;2023-05-07T12:00:22;103012.80;;;11.93;14.07
80640;BME280;69992;60.170;24.692;2023-05-07T12:02:47;103012.30;;;12.42;14.05
80640;BME280;69992;60.170;24.692;2023-05-07T12:05:13;103009.79;;;13.56;14.09
80640;BME280;69992;60.170;24.692;2023-05-07T12:07:38;103007.95;;;11.97;14.12
80640;BME280;69992;60.170;24.692;2023-05-07T12:10:05;103012.40;;;13.11;14.12
80640;BME280;69992;60.170;24.692;2023-05-07T12:12:29;103008.47;;;13.60;14.10
80640;BME280;69992;60.170;24.692;2023-05-07T12:14:55;103012.75;;;14.06;14.10
80640;BME280;69992;60.170;24.692;2023-05-07T12:17:20;103009.69;;;13.43;14.08
80640;BME280;69992;60.170;24.692;2023-05-07T12:19:46;103006.63;;;12.88;13.99
80640;BME280;69992;60.170;24.692;2023-05-07T12:22:12;103012.23;;;13.68;13.98
80640;BME280;69992;60.170;24.692;2023-05-07T12:24:44;103003.13;;;14.64;13.95
80640;BME280;69992;60.170;24.692;2023-05-07T12:27:02;103001.20;;;14.81;13.86
80640;BME280;69992;60.170;24.692;2023-05-07T12:29:28;103000.72;;;15.81;13.80
80640;BME280;69992;60.170;24.692;2023-05-07T12:31:53;103002.03;;;15.71;13.74
80640;BME280;69992;60.170;24.692;2023-05-07T12:34:19;102999.40;;;16.95;13.62
80640;BME280;69992;60.170;24.692;2023-05-07T12:36:44;102997.40;;;16.53;13.49
80640;BME280;69992;60.170;24.692;2023-05-07T12:39:10;102999.76;;;18.82;13.23
80640;BME280;69992;60.170;24.692;2023-05-07T12:44:00;103002.78;;;21.18;12.78
80640;BME280;69992;60.170;24.692;2023-05-07T12:46:26;103008.02;;;21.04;12.65